Pagina principală
METAR-TAF:

METAR-TAF

Aeroporturi :

Kununurra, Australia

Latitudine: 15-46S, longitudine: 128-42E, elevație: 44 m

Observații meteo curente

Raportul a fost făcut în urmă cu 39 de minute, la 09:30 UTC
Vânt 5 kt de la Est/Nord-est
Temperatură 24°C
Umiditate 57%
Presiune 1012 hPa
Vizibilitate de 10 km sau mai mult

METAR: YPKU 260930Z AUTO 07005KT 9999 // NCD 24/15 Q1012 RF00.0/000.0

Ora: 18:09 (10:09 UTC)

Prognoză

Raportul a fost făcut în urmă cu 4 ore și 7 de minute, la 06:02 UTC
Prognoză valabilă de la 26 ora 08 UTC la 26 ora 20 UTC
Vânt 3 kt din direcții variabile
Vizibilitate de 10 km sau mai mult
Nori împrăștiați la o înălțime de 5000 picior
De la 26 ora 1800 UTC
Vânt 3 kt din direcții variabile
Vizibilitate de 10 km sau mai mult
Nori fragmentați la o înălțime de 5000 picior

TAF: YPKU 260602Z 2608/2620 VRB03KT 9999 SCT050 FM261800 VRB03KT 9999 BKN050

Observații și prognoze meteo pentru peste 4.000 de aeroporturi (rapoarte METAR și TAF).

Stațiile disponibile sunt reprezentate pe hartă prin puncte galbene și roșii.

Țineți indicatorul mouse-ului pe punctul dorit pentru a vedea denumirea stației.

Apoi, faceți clic pentru a vedea observațiile și prognozele meteorologice.

Pentru a schimba harta: Pentru mărire, faceți clic pe butoanele verzi cu cruce neagră; pentru micșorare, pe butonul verde cu o liniuță; pentru hărți învecinate, pe săgețile verzi.


METAR-TAF: